Amboy, Minnesota
Current Conditions -  °F | °C
As of 8:54 AM on Saturday 22 Nov 2014 (Local Time) from KJYG Reporting Station
Haze Haze  
Wind Chill: 29°   Ceiling: 400
Heat Index: 36°   Visibility: 2mi
Dew Point: 34°   Wind: 9mph
Humidity: 93%   Direction: 190°S
Pressure: 29.77"   Gusts: NA
Location:  43.89°N, 94.16°W
Report Text: KJYG 221454Z AUTO 19008KT 2SM BR OVC004 02/01 A2977 RMK AO2
Loading
Personal Weather Stations






























Interactive Weather Map New forecast layout! Learn more

10-Day Weather Forecast

Advertisements
Track Severe Weather on mobile